createdAt,value
2018-06-01T00:00:56.470Z,28.04
2018-06-01T00:01:56.468Z,31.48
2018-06-01T00:02:56.465Z,34.16
2018-06-01T00:03:56.457Z,37.80
2018-06-01T00:04:56.453Z,41.34
2018-06-01T00:05:56.451Z,39.04
2018-06-01T00:06:56.445Z,36.55
2018-06-01T00:07:56.438Z,35.79
2018-06-01T00:08:56.448Z,35.12
2018-06-01T00:09:56.437Z,39.90
2018-06-01T00:10:56.433Z,35.69
2018-06-01T00:11:56.428Z,37.61
2018-06-01T00:12:56.428Z,38.85
2018-06-01T00:13:56.422Z,44.50
2018-06-01T00:14:56.415Z,44.59
2018-06-01T00:15:56.414Z,40.29
2018-06-01T00:16:56.431Z,39.62
2018-06-01T00:17:56.413Z,40.00
2018-06-01T00:18:56.408Z,39.23
2018-06-01T00:19:56.412Z,36.15
2018-06-01T00:20:56.396Z,33.49
2018-06-01T00:21:56.397Z,30.24
2018-06-01T00:22:56.395Z,31.27
2018-06-01T00:23:56.384Z,31.95
2018-06-01T00:24:56.383Z,32.92
2018-06-01T00:25:56.386Z,33.97
2018-06-01T00:26:56.380Z,32.82
2018-06-01T00:27:56.370Z,30.43
2018-06-01T00:28:56.370Z,34.16
2018-06-01T00:29:56.369Z,36.08
2018-06-01T00:30:56.372Z,37.23
2018-06-01T00:31:56.365Z,36.36
2018-06-01T00:32:56.364Z,38.09
2018-06-01T00:33:56.356Z,36.36
2018-06-01T00:34:56.348Z,35.98
2018-06-01T00:35:56.350Z,38.09
2018-06-01T00:36:56.349Z,38.45
2018-06-01T00:37:56.340Z,37.80
2018-06-01T00:38:56.335Z,38.07
2018-06-01T00:39:56.336Z,36.63
2018-06-01T00:40:56.332Z,34.43
2018-06-01T00:41:56.325Z,37.40
2018-06-01T00:42:56.330Z,31.95
2018-06-01T00:43:56.325Z,29.46
2018-06-01T00:44:56.323Z,28.31
2018-06-01T00:45:56.317Z,24.58
2018-06-01T00:46:56.315Z,22.76
2018-06-01T00:47:56.324Z,18.17
2018-06-01T00:48:56.306Z,14.15
2018-06-01T00:49:56.304Z,8.13
2018-06-01T00:50:56.301Z,6.02
2018-06-01T00:51:56.292Z,2.20
2018-06-01T00:52:56.297Z,6.21
2018-06-01T00:53:56.284Z,3.63
2018-06-01T00:54:56.289Z,2.20
2018-06-01T00:55:56.293Z,0.00
2018-06-01T00:56:56.274Z,0.00
2018-06-01T00:57:56.270Z,0.00
2018-06-01T00:58:56.268Z,0.00
2018-06-01T00:59:56.260Z,0.00
2018-06-01T01:00:56.319Z,0.00
2018-06-01T01:01:56.335Z,0.00
2018-06-01T01:02:56.260Z,0.00
2018-06-01T01:03:56.253Z,0.00
2018-06-01T01:04:56.246Z,0.00
2018-06-01T01:05:56.281Z,0.00
2018-06-01T01:06:56.242Z,0.00
2018-06-01T01:07:56.239Z,0.00
2018-06-01T01:08:56.235Z,0.00
2018-06-01T01:09:56.226Z,0.00
2018-06-01T01:10:56.225Z,0.00
2018-06-01T01:11:56.225Z,0.00
2018-06-01T01:12:56.218Z,0.00
2018-06-01T01:13:56.214Z,0.00
2018-06-01T01:14:56.208Z,0.00
2018-06-01T01:15:56.206Z,0.00
2018-06-01T01:16:56.208Z,0.00
2018-06-01T01:17:56.199Z,0.00
2018-06-01T01:18:56.195Z,0.00
2018-06-01T01:19:56.192Z,0.00
2018-06-01T01:20:56.188Z,0.00
2018-06-01T01:21:56.185Z,0.00
2018-06-01T01:22:56.184Z,0.00
2018-06-01T01:23:56.179Z,0.00
2018-06-01T01:24:56.175Z,0.00
2018-06-01T01:25:56.167Z,0.00
2018-06-01T01:26:56.177Z,0.00
2018-06-01T01:27:56.165Z,0.00
2018-06-01T01:28:56.219Z,0.00
2018-06-01T01:29:56.154Z,0.00
2018-06-01T02:04:08.459Z,0.00
2018-06-01T02:05:08.436Z,0.00
2018-06-01T02:07:01.305Z,0.00
2018-06-01T02:08:01.294Z,0.00
2018-06-01T02:09:54.237Z,0.00
2018-06-01T02:10:54.204Z,0.00
2018-06-01T02:12:47.115Z,0.00
2018-06-01T02:13:47.111Z,0.00
2018-06-01T02:15:40.112Z,0.00
2018-06-01T02:16:40.085Z,0.00
2018-06-01T02:18:33.116Z,0.00
2018-06-01T02:19:33.096Z,0.00
2018-06-01T02:20:33.074Z,0.00
2018-06-01T02:21:33.080Z,0.00
2018-06-01T02:22:33.077Z,0.00
2018-06-01T02:23:33.074Z,0.00
2018-06-01T02:24:33.067Z,0.00
2018-06-01T02:25:33.064Z,0.00
2018-06-01T02:26:33.060Z,0.00
2018-06-01T02:27:33.063Z,0.00
2018-06-01T02:28:33.054Z,0.00
2018-06-01T02:29:33.046Z,0.00
2018-06-01T02:30:33.046Z,0.00
2018-06-01T02:31:33.043Z,0.00
2018-06-01T02:32:33.041Z,0.00
2018-06-01T02:33:33.035Z,0.00
2018-06-01T02:34:33.035Z,0.00
2018-06-01T02:35:33.030Z,0.00
2018-06-01T02:36:33.024Z,0.00
2018-06-01T02:37:33.030Z,0.00
2018-06-01T02:38:33.022Z,0.00
2018-06-01T02:39:33.018Z,0.00
2018-06-01T02:40:33.009Z,0.00
2018-06-01T02:41:33.005Z,0.00
2018-06-01T02:42:33.007Z,0.00
2018-06-01T02:43:33.012Z,0.00
2018-06-01T02:44:32.995Z,0.00
2018-06-01T02:45:32.999Z,0.00
2018-06-01T02:46:32.991Z,0.00
2018-06-01T02:47:32.987Z,0.00
2018-06-01T02:48:32.984Z,0.00
2018-06-01T02:49:32.979Z,0.00
2018-06-01T02:50:32.980Z,0.00
2018-06-01T02:51:32.973Z,0.00
2018-06-01T02:52:32.973Z,0.00
2018-06-01T02:53:32.966Z,0.00
2018-06-01T02:54:32.963Z,0.00
2018-06-01T02:55:32.959Z,0.00
2018-06-01T02:56:32.960Z,0.00
2018-06-01T02:57:32.953Z,0.00
2018-06-01T02:58:32.953Z,0.00
2018-06-01T02:59:32.950Z,0.00
2018-06-01T03:00:32.948Z,0.00
2018-06-01T03:01:32.941Z,0.00
2018-06-01T03:02:32.938Z,0.00
2018-06-01T03:03:32.935Z,0.00
2018-06-01T03:04:32.927Z,0.00
2018-06-01T03:05:32.924Z,0.00
2018-06-01T03:06:32.923Z,0.00
2018-06-01T03:07:32.921Z,0.00
2018-06-01T03:08:32.920Z,0.00
2018-06-01T03:09:32.915Z,0.00
2018-06-01T03:10:32.910Z,0.00
2018-06-01T03:11:32.907Z,0.00
2018-06-01T03:12:32.905Z,0.00
2018-06-01T03:13:32.897Z,0.00
2018-06-01T03:14:32.903Z,0.00
2018-06-01T03:15:32.898Z,0.00
2018-06-01T03:16:32.901Z,0.00
2018-06-01T03:17:32.887Z,0.00
2018-06-01T03:18:32.884Z,0.00
2018-06-01T03:19:32.877Z,0.00
2018-06-01T03:20:32.869Z,0.00
2018-06-01T03:21:32.874Z,0.00
2018-06-01T03:22:32.874Z,0.00
2018-06-01T03:23:32.867Z,0.00
2018-06-01T03:24:32.870Z,0.00
2018-06-01T03:25:32.855Z,0.00
2018-06-01T03:26:32.850Z,0.00
2018-06-01T03:27:32.853Z,0.00
2018-06-01T03:28:32.841Z,0.00
2018-06-01T03:29:32.844Z,0.00
2018-06-01T03:30:32.837Z,0.00
2018-06-01T03:31:32.836Z,0.00
2018-06-01T03:32:32.831Z,0.00
2018-06-01T03:33:32.826Z,0.00
2018-06-01T03:34:32.826Z,0.00
2018-06-01T03:35:32.825Z,0.00
2018-06-01T03:36:32.818Z,0.00
2018-06-01T03:37:32.813Z,0.00
2018-06-01T03:38:32.807Z,0.00
2018-06-01T03:39:32.809Z,0.00
2018-06-01T03:40:32.802Z,0.00
2018-06-01T03:41:32.799Z,0.00
2018-06-01T03:42:32.794Z,0.00
2018-06-01T03:43:32.788Z,0.00
2018-06-01T03:44:32.782Z,0.00
2018-06-01T03:45:32.775Z,0.00
2018-06-01T03:46:32.775Z,0.00
2018-06-01T03:47:32.773Z,0.00
2018-06-01T03:48:32.770Z,0.00
2018-06-01T03:49:32.769Z,0.00
2018-06-01T03:50:32.760Z,0.00
2018-06-01T03:51:32.755Z,0.00
2018-06-01T03:52:32.752Z,0.00
2018-06-01T03:53:32.751Z,0.00
2018-06-01T03:54:32.741Z,0.00
2018-06-01T03:55:32.741Z,0.00
2018-06-01T03:56:32.739Z,0.00
2018-06-01T03:57:32.730Z,0.00
2018-06-01T03:58:32.727Z,0.00
2018-06-01T03:59:32.730Z,0.00
2018-06-01T04:00:32.719Z,0.00
2018-06-01T04:01:32.724Z,0.00
2018-06-01T04:02:32.714Z,0.00
2018-06-01T04:03:32.727Z,0.00
2018-06-01T04:04:32.710Z,0.00
2018-06-01T04:05:32.702Z,0.00
2018-06-01T04:06:32.701Z,0.00
2018-06-01T04:07:32.701Z,0.00
2018-06-01T04:08:32.688Z,0.00
2018-06-01T04:09:32.689Z,0.00
2018-06-01T04:10:32.685Z,0.00
2018-06-01T04:11:32.679Z,0.00
2018-06-01T04:12:32.676Z,0.00
2018-06-01T04:13:32.669Z,0.00
2018-06-01T04:14:32.667Z,0.00
2018-06-01T04:15:32.665Z,0.00
2018-06-01T04:16:32.662Z,0.00
2018-06-01T04:17:32.660Z,0.00
2018-06-01T04:18:32.654Z,0.00
2018-06-01T04:19:32.649Z,0.00
2018-06-01T04:20:32.648Z,0.00
2018-06-01T04:21:32.644Z,0.00
2018-06-01T04:22:32.645Z,0.00
2018-06-01T04:23:32.634Z,0.00
2018-06-01T04:24:32.632Z,0.00
2018-06-01T04:25:32.627Z,0.00
2018-06-01T04:26:32.619Z,0.00
2018-06-01T04:27:32.615Z,0.00
2018-06-01T04:28:32.613Z,0.00
2018-06-01T04:29:32.610Z,0.00
2018-06-01T04:30:32.607Z,0.00
2018-06-01T04:31:32.623Z,0.00
2018-06-01T04:32:32.598Z,0.00
2018-06-01T04:33:32.594Z,0.00
2018-06-01T04:34:32.588Z,0.00
2018-06-01T04:35:32.588Z,0.00
2018-06-01T04:36:32.584Z,0.00
2018-06-01T04:37:32.577Z,0.00
2018-06-01T04:38:32.574Z,0.00
2018-06-01T04:39:32.573Z,0.00
2018-06-01T04:40:32.613Z,0.00
2018-06-01T04:41:32.561Z,0.00
2018-06-01T04:42:32.558Z,0.00
2018-06-01T04:43:32.555Z,0.00
2018-06-01T04:44:32.553Z,0.00
2018-06-01T04:45:32.549Z,0.00
2018-06-01T04:46:32.545Z,0.00
2018-06-01T04:47:32.540Z,0.00
2018-06-01T04:48:32.539Z,0.00
2018-06-01T04:49:32.540Z,0.00
2018-06-01T04:50:32.528Z,0.00
2018-06-01T04:51:32.526Z,0.00
2018-06-01T04:52:32.522Z,0.00
2018-06-01T04:53:32.523Z,0.00
2018-06-01T04:54:32.515Z,0.00
2018-06-01T04:55:32.514Z,0.00
2018-06-01T04:56:32.509Z,0.00
2018-06-01T04:57:32.503Z,0.00
2018-06-01T04:58:32.498Z,0.00
2018-06-01T04:59:32.496Z,0.00
2018-06-01T05:00:32.481Z,0.00
2018-06-01T05:01:32.490Z,0.00
2018-06-01T05:02:32.481Z,0.00
2018-06-01T05:03:32.485Z,0.00
2018-06-01T05:04:32.477Z,0.00
2018-06-01T05:05:32.480Z,0.00
2018-06-01T05:06:32.475Z,0.00
2018-06-01T05:07:32.468Z,0.00
2018-06-01T05:08:32.463Z,0.00
2018-06-01T05:09:32.457Z,0.00
2018-06-01T05:10:32.457Z,0.00
2018-06-01T05:11:32.453Z,0.00
2018-06-01T05:12:32.449Z,0.00
2018-06-01T05:13:32.463Z,0.00
2018-06-01T05:14:32.460Z,0.00
2018-06-01T05:15:32.439Z,0.00
2018-06-01T05:16:32.441Z,0.00
2018-06-01T05:17:32.437Z,0.00
2018-06-01T05:18:32.431Z,3.53
2018-06-01T05:19:32.426Z,6.88
2018-06-01T05:20:32.422Z,12.82
2018-06-01T05:21:32.418Z,15.69
2018-06-01T05:22:32.415Z,15.98
2018-06-01T05:23:32.417Z,22.58
2018-06-01T05:24:32.984Z,25.26
2018-06-01T05:25:32.405Z,31.96
2018-06-01T05:26:32.404Z,33.59
2018-06-01T05:27:32.410Z,39.45
2018-06-01T05:28:32.396Z,42.32
2018-06-01T05:29:32.400Z,43.47
2018-06-01T05:30:32.391Z,48.93
2018-06-01T05:31:32.393Z,60.10
2018-06-01T05:32:32.388Z,61.25
2018-06-01T05:33:32.381Z,57.64
2018-06-01T05:34:32.380Z,58.69
2018-06-01T05:35:32.446Z,58.40
2018-06-01T05:36:32.374Z,60.41
2018-06-01T05:37:32.376Z,61.31
2018-06-01T05:38:32.376Z,68.01
2018-06-01T05:39:32.378Z,77.17
2018-06-01T05:40:32.366Z,79.08
2018-06-01T05:41:32.364Z,75.26
2018-06-01T05:42:32.366Z,73.38
2018-06-01T05:43:32.358Z,81.43
2018-06-01T05:44:32.362Z,82.00
2018-06-01T05:45:32.363Z,83.92
2018-06-01T05:46:32.349Z,83.82
2018-06-01T05:47:32.356Z,82.86
2018-06-01T05:48:32.353Z,85.35
2018-06-01T05:49:32.347Z,86.98
2018-06-01T05:50:32.333Z,86.02
2018-06-01T05:51:32.330Z,85.88
2018-06-01T05:52:32.349Z,92.30
2018-06-01T05:53:32.336Z,94.50
2018-06-01T05:54:32.337Z,99.39
2018-06-01T05:55:32.331Z,99.99
2018-06-01T05:56:32.332Z,99.19
2018-06-01T05:57:32.324Z,99.99
2018-06-01T05:58:32.327Z,99.99
2018-06-01T05:59:32.322Z,99.99
2018-06-01T06:00:32.318Z,99.99
2018-06-01T06:01:32.327Z,99.99
2018-06-01T06:02:32.318Z,99.99
2018-06-01T06:03:32.321Z,99.99
2018-06-01T06:04:32.357Z,99.99
2018-06-01T06:05:32.311Z,99.99
2018-06-01T06:06:32.305Z,99.99
2018-06-01T06:07:32.323Z,99.99
2018-06-01T06:08:32.315Z,99.99
2018-06-01T06:09:32.308Z,99.99
2018-06-01T06:10:32.305Z,99.99
2018-06-01T06:11:32.301Z,99.99
2018-06-01T06:12:32.299Z,99.99
2018-06-01T06:13:32.319Z,99.99
2018-06-01T06:14:32.295Z,99.99
2018-06-01T06:15:32.296Z,99.99
2018-06-01T06:16:32.294Z,99.99
2018-06-01T06:17:32.293Z,99.99
2018-06-01T06:18:32.288Z,99.99
2018-06-01T06:19:32.289Z,99.99
2018-06-01T06:20:32.284Z,99.99
2018-06-01T06:21:32.290Z,99.99
2018-06-01T06:22:32.297Z,99.99
2018-06-01T06:23:32.283Z,99.99
2018-06-01T06:24:32.286Z,99.99
2018-06-01T06:25:32.278Z,99.99
2018-06-01T06:26:32.279Z,99.99
2018-06-01T06:27:32.280Z,99.99
2018-06-01T06:28:32.276Z,99.99
2018-06-01T06:29:32.274Z,99.99
2018-06-01T06:30:32.276Z,99.99
2018-06-01T06:31:32.283Z,99.99
2018-06-01T06:32:32.270Z,99.99
2018-06-01T06:33:32.271Z,99.99
2018-06-01T06:34:32.278Z,99.99
2018-06-01T06:35:32.275Z,99.99
2018-06-01T06:36:32.273Z,99.99
2018-06-01T06:37:32.291Z,99.99
2018-06-01T06:38:32.275Z,99.99
2018-06-01T06:39:32.268Z,99.99
2018-06-01T06:40:32.268Z,99.99
2018-06-01T06:41:32.275Z,99.99
2018-06-01T06:42:32.261Z,99.99
2018-06-01T06:43:32.268Z,99.99
2018-06-01T06:44:32.264Z,99.99
2018-06-01T06:45:32.266Z,99.99
2018-06-01T06:46:32.267Z,99.99
2018-06-01T06:47:32.268Z,99.99
2018-06-01T06:48:32.263Z,99.99
2018-06-01T06:49:32.266Z,99.99
2018-06-01T06:50:32.269Z,99.99
2018-06-01T06:51:32.264Z,98.77
2018-06-01T06:52:32.262Z,99.99
2018-06-01T06:53:32.270Z,99.99
2018-06-01T06:54:32.265Z,99.99
2018-06-01T06:55:32.265Z,99.99
2018-06-01T06:56:32.263Z,99.99
2018-06-01T06:57:32.252Z,99.55
2018-06-01T06:58:32.266Z,97.72
2018-06-01T06:59:32.268Z,97.42
2018-06-01T07:00:32.270Z,95.54
2018-06-01T07:01:32.262Z,90.33
2018-06-01T07:02:32.268Z,86.86
2018-06-01T07:03:32.269Z,85.60
2018-06-01T07:04:32.271Z,84.48
2018-06-01T07:05:32.271Z,83.08
2018-06-01T07:06:32.276Z,83.91
2018-06-01T07:07:32.277Z,81.77
2018-06-01T07:08:32.280Z,80.61
2018-06-01T07:09:32.286Z,80.65
2018-06-01T07:10:32.301Z,79.68
2018-06-01T07:11:32.294Z,78.42
2018-06-01T07:12:32.302Z,78.27
2018-06-01T07:13:32.308Z,76.86
2018-06-01T07:14:32.320Z,74.76
2018-06-01T07:15:32.327Z,74.28
2018-06-01T07:16:32.333Z,72.83
2018-06-01T07:17:32.341Z,72.09
2018-06-01T07:18:32.352Z,71.50
2018-06-01T07:19:32.380Z,71.93
2018-06-01T07:20:32.369Z,72.02
2018-06-01T07:21:32.386Z,72.09
2018-06-01T07:22:32.409Z,73.02
2018-06-01T07:23:32.410Z,71.99
2018-06-01T07:24:32.411Z,72.47
2018-06-01T07:25:32.422Z,72.12
2018-06-01T07:26:32.435Z,70.90
2018-06-01T07:27:32.447Z,68.51
2018-06-01T07:28:32.459Z,68.44
2018-06-01T07:29:32.470Z,67.05
2018-06-01T07:30:32.482Z,66.66
2018-06-01T07:31:32.494Z,65.50
2018-06-01T07:32:32.511Z,65.92
2018-06-01T07:33:32.517Z,65.14
2018-06-01T07:34:32.537Z,65.01
2018-06-01T07:35:32.550Z,64.91
2018-06-01T07:36:32.560Z,64.36
2018-06-01T07:37:32.575Z,64.39
2018-06-01T07:38:32.695Z,64.72
2018-06-01T07:39:32.603Z,65.04
2018-06-01T07:40:32.628Z,64.33
2018-06-01T07:41:32.633Z,64.14
2018-06-01T07:42:32.646Z,64.33
2018-06-01T07:43:32.659Z,65.30
2018-06-01T07:44:32.685Z,65.30
2018-06-01T07:45:32.692Z,64.56
2018-06-01T07:46:32.699Z,63.52
2018-06-01T07:47:32.720Z,62.64
2018-06-01T07:48:32.736Z,62.29
2018-06-01T07:49:32.756Z,63.49
2018-06-01T07:50:32.763Z,63.75
2018-06-01T07:51:32.780Z,63.29
2018-06-01T07:52:32.796Z,63.29
2018-06-01T07:53:32.805Z,63.42
2018-06-01T07:54:32.840Z,62.67
2018-06-01T07:55:32.883Z,62.35
2018-06-01T07:56:32.857Z,61.51
2018-06-01T07:57:32.880Z,63.10
2018-06-01T07:58:32.889Z,62.87
2018-06-01T07:59:32.904Z,63.45
2018-06-01T08:00:32.919Z,63.17
2018-06-01T08:01:32.941Z,63.45
2018-06-01T08:02:32.944Z,63.26
2018-06-01T08:03:33.028Z,63.75
2018-06-01T08:04:32.981Z,63.45
2018-06-01T08:05:32.997Z,62.77
2018-06-01T08:06:33.016Z,62.90
2018-06-01T08:07:33.030Z,62.06
2018-06-01T08:08:33.043Z,61.11
2018-06-01T08:09:33.065Z,60.24
2018-06-01T08:10:33.079Z,60.92
2018-06-01T08:11:33.093Z,61.24
2018-06-01T08:12:33.111Z,61.21
2018-06-01T08:13:33.126Z,61.08
2018-06-01T08:14:33.144Z,62.54
2018-06-01T08:15:33.161Z,62.38
2018-06-01T08:16:33.185Z,61.08
2018-06-01T08:17:33.196Z,59.69
2018-06-01T08:18:33.215Z,61.51
2018-06-01T08:19:33.227Z,60.66
2018-06-01T08:20:33.245Z,60.23
2018-06-01T08:21:33.264Z,58.50
2018-06-01T08:22:33.280Z,57.20
2018-06-01T08:23:33.299Z,56.93
2018-06-01T08:24:33.325Z,55.66
2018-06-01T08:25:33.333Z,55.76
2018-06-01T08:26:33.349Z,53.93
2018-06-01T08:27:33.392Z,53.08
2018-06-01T08:28:33.387Z,54.10
2018-06-01T08:29:33.405Z,53.93
2018-06-01T08:30:33.423Z,54.15
2018-06-01T08:31:33.440Z,54.30
2018-06-01T08:32:33.508Z,52.17
2018-06-01T08:33:33.475Z,54.64
2018-06-01T08:34:33.500Z,53.37
2018-06-01T08:35:33.510Z,54.22
2018-06-01T08:36:33.531Z,53.15
2018-06-01T08:37:33.556Z,53.76
2018-06-01T08:38:33.702Z,54.05
2018-06-01T08:39:33.662Z,52.12
2018-06-01T08:40:33.601Z,52.39
2018-06-01T08:41:33.628Z,53.93
2018-06-01T08:42:33.647Z,53.88
2018-06-01T08:43:33.664Z,53.15
2018-06-01T08:44:33.683Z,53.32
2018-06-01T08:45:33.732Z,53.89
2018-06-01T08:46:33.749Z,56.20
2018-06-01T08:47:33.743Z,56.71
2018-06-01T08:48:33.762Z,55.34
2018-06-01T08:49:33.784Z,55.77
2018-06-01T08:50:33.800Z,58.44
2018-06-01T08:51:33.831Z,55.41
2018-06-01T08:52:33.895Z,57.10
2018-06-01T08:53:33.856Z,54.10
2018-06-01T08:54:33.880Z,55.90
2018-06-01T08:55:33.899Z,56.89
2018-06-01T08:56:33.918Z,52.76
2018-06-01T08:57:33.940Z,51.95
2018-06-01T08:58:33.963Z,50.63
2018-06-01T08:59:33.991Z,49.82
2018-06-01T09:00:34.010Z,49.04
2018-06-01T09:01:34.033Z,49.26
2018-06-01T09:02:34.063Z,49.63
2018-06-01T09:03:34.081Z,50.12
2018-06-01T09:04:34.119Z,50.88
2018-06-01T09:05:34.110Z,51.03
2018-06-01T09:06:34.135Z,49.16
2018-06-01T09:07:34.151Z,49.97
2018-06-01T09:08:34.180Z,49.99
2018-06-01T09:09:34.219Z,48.38
2018-06-01T09:10:34.222Z,47.84
2018-06-01T09:11:34.264Z,48.60
2018-06-01T09:12:34.269Z,47.16
2018-06-01T09:13:34.288Z,47.00
2018-06-01T09:14:34.301Z,45.92
2018-06-01T09:15:34.336Z,48.55
2018-06-01T09:16:34.356Z,48.01
2018-06-01T09:17:34.461Z,48.11
2018-06-01T09:18:34.398Z,47.39
2018-06-01T09:19:34.428Z,47.69
2018-06-01T09:20:34.442Z,50.63
2018-06-01T09:21:34.494Z,49.16
2018-06-01T09:22:34.615Z,48.58
2018-06-01T09:23:34.502Z,49.58
2018-06-01T09:24:34.522Z,52.48
2018-06-01T09:25:34.638Z,53.70
2018-06-01T09:26:34.592Z,54.36
2018-06-01T09:27:34.580Z,55.52
2018-06-01T09:28:34.593Z,55.55
2018-06-01T09:29:34.610Z,53.11
2018-06-01T09:30:34.616Z,54.94
2018-06-01T09:31:34.639Z,55.62
2018-06-01T09:32:34.656Z,54.09
2018-06-01T09:33:34.669Z,54.34
2018-06-01T09:34:34.688Z,53.93
2018-06-01T09:35:34.702Z,52.08
2018-06-01T09:36:34.721Z,52.05
2018-06-01T09:37:34.737Z,54.27
2018-06-01T09:38:34.744Z,54.72
2018-06-01T09:39:34.768Z,56.41
2018-06-01T09:40:34.778Z,56.03
2018-06-01T09:41:34.796Z,56.90
2018-06-01T09:42:34.814Z,56.25
2018-06-01T09:43:34.839Z,53.36
2018-06-01T09:44:34.835Z,54.34
2018-06-01T09:45:34.851Z,53.27
2018-06-01T09:46:34.893Z,52.56
2018-06-01T09:47:34.877Z,52.00
2018-06-01T09:48:34.895Z,53.73
2018-06-01T09:49:34.909Z,54.68
2018-06-01T09:50:34.923Z,55.30
2018-06-01T09:51:34.939Z,58.13
2018-06-01T09:52:34.945Z,58.22
2018-06-01T09:53:34.962Z,58.32
2018-06-01T09:54:34.974Z,57.01
2018-06-01T09:55:34.984Z,57.09
2018-06-01T09:56:35.005Z,56.21
2018-06-01T09:57:35.014Z,56.33
2018-06-01T09:58:35.026Z,56.33
2018-06-01T09:59:35.037Z,56.40
2018-06-01T10:00:35.054Z,54.40
2018-06-01T10:01:35.060Z,57.68
2018-06-01T10:02:35.100Z,56.51
2018-06-01T10:03:35.088Z,58.61
2018-06-01T10:04:35.102Z,58.84
2018-06-01T10:05:35.124Z,56.81
2018-06-01T10:06:35.129Z,58.04
2018-06-01T10:07:35.161Z,61.74
2018-06-01T10:08:35.159Z,61.38
2018-06-01T10:09:35.179Z,60.90
2018-06-01T10:10:35.187Z,62.32
2018-06-01T10:11:35.197Z,61.74
2018-06-01T10:12:35.214Z,61.07
2018-06-01T10:13:35.232Z,59.79
2018-06-01T10:14:35.240Z,59.66
2018-06-01T10:15:35.281Z,59.91
2018-06-01T10:16:35.270Z,57.57
2018-06-01T10:17:35.282Z,60.20
2018-06-01T10:18:35.298Z,56.87
2018-06-01T10:19:35.315Z,53.97
2018-06-01T10:20:35.371Z,53.15
2018-06-01T10:21:35.357Z,54.59
2018-06-01T10:22:35.351Z,55.66
2018-06-01T10:23:36.012Z,54.83
2018-06-01T10:24:35.385Z,55.22
2018-06-01T10:25:35.394Z,54.99
2018-06-01T10:26:35.454Z,56.62
2018-06-01T10:27:35.426Z,56.74
2018-06-01T10:28:35.440Z,57.97
2018-06-01T10:29:35.457Z,58.87
2018-06-01T10:30:35.469Z,57.78
2018-06-01T10:31:35.495Z,59.61
2018-06-01T10:32:35.495Z,61.04
2018-06-01T10:33:35.507Z,61.25
2018-06-01T10:34:35.518Z,61.58
2018-06-01T10:35:35.532Z,63.10
2018-06-01T10:36:35.544Z,60.96
2018-06-01T10:37:35.557Z,59.72
2018-06-01T10:38:35.578Z,58.51
2018-06-01T10:39:35.609Z,56.52
2018-06-01T10:40:35.591Z,55.63
2018-06-01T10:41:35.601Z,53.44
2018-06-01T10:42:35.615Z,51.44
2018-06-01T10:43:35.632Z,49.37
2018-06-01T10:44:35.644Z,53.78
2018-06-01T10:45:35.657Z,54.15
2018-06-01T10:46:35.673Z,52.56
2018-06-01T10:47:35.688Z,50.54
2018-06-01T10:48:35.708Z,50.56
2018-06-01T10:49:35.767Z,46.40
2018-06-01T10:50:35.738Z,49.75
2018-06-01T10:51:35.767Z,50.29
2018-06-01T10:52:35.762Z,48.65
2018-06-01T10:53:35.785Z,48.13
2018-06-01T10:54:35.796Z,48.50
2018-06-01T10:55:35.822Z,50.73
2018-06-01T10:56:35.832Z,48.63
2018-06-01T10:57:35.855Z,50.20
2018-06-01T10:58:35.872Z,50.39
2018-06-01T10:59:35.901Z,49.97
2018-06-01T11:00:35.917Z,50.05
2018-06-01T11:01:35.955Z,48.72
2018-06-01T11:02:35.943Z,49.75
2018-06-01T11:03:35.973Z,47.99
2018-06-01T11:04:35.963Z,45.91
2018-06-01T11:05:35.993Z,47.50
2018-06-01T11:06:36.010Z,46.17
2018-06-01T11:07:36.022Z,46.61
2018-06-01T11:08:36.041Z,44.82
2018-06-01T11:09:36.065Z,44.13
2018-06-01T11:10:36.091Z,47.00
2018-06-01T11:11:36.108Z,44.43
2018-06-01T11:12:36.110Z,45.34
2018-06-01T11:13:36.125Z,47.64
2018-06-01T11:14:36.152Z,47.96
2018-06-01T11:15:37.013Z,45.32
2018-06-01T11:16:36.205Z,42.18
2018-06-01T11:17:36.212Z,41.98
2018-06-01T11:18:36.231Z,41.92
2018-06-01T11:19:36.244Z,43.29
2018-06-01T11:20:36.285Z,42.61
2018-06-01T11:21:36.316Z,45.34
2018-06-01T11:22:36.305Z,45.83
2018-06-01T11:23:36.327Z,46.81
2018-06-01T11:24:36.345Z,44.51
2018-06-01T11:25:36.362Z,47.08
2018-06-01T11:26:36.377Z,46.03
2018-06-01T11:27:36.415Z,46.52
2018-06-01T11:28:36.431Z,47.23
2018-06-01T11:29:36.442Z,44.90
2018-06-01T11:30:36.466Z,46.66
2018-06-01T11:31:36.487Z,46.86
2018-06-01T11:32:36.506Z,46.95
2018-06-01T11:33:36.530Z,44.23
2018-06-01T11:34:36.564Z,41.88
2018-06-01T11:35:36.571Z,45.49
2018-06-01T11:36:36.592Z,44.24
2018-06-01T11:37:36.606Z,47.48
2018-06-01T11:38:36.627Z,48.02
2018-06-01T11:39:36.648Z,50.95
2018-06-01T11:40:36.686Z,50.32
2018-06-01T11:41:36.687Z,48.85
2018-06-01T11:42:36.725Z,49.37
2018-06-01T11:43:36.731Z,49.71
2018-06-01T11:44:36.745Z,49.14
2018-06-01T11:45:36.767Z,47.72
2018-06-01T11:46:36.785Z,45.79
2018-06-01T11:47:36.802Z,44.69
2018-06-01T11:48:36.823Z,43.79
2018-06-01T11:49:36.845Z,47.53
2018-06-01T11:50:36.874Z,46.79
2018-06-01T11:51:36.882Z,45.03
2018-06-01T11:52:36.896Z,45.15
2018-06-01T11:53:36.917Z,45.83
2018-06-01T11:54:36.951Z,45.06
2018-06-01T11:55:36.958Z,48.09
2018-06-01T11:56:36.974Z,48.99
2018-06-01T11:57:36.996Z,49.90
2018-06-01T11:58:37.023Z,47.45
2018-06-01T11:59:37.048Z,46.57
2018-06-01T12:00:37.051Z,46.60
2018-06-01T12:01:37.133Z,48.53
2018-06-01T12:02:37.096Z,46.77
2018-06-01T12:03:37.106Z,46.89
2018-06-01T12:04:37.142Z,45.91
2018-06-01T12:05:37.161Z,44.56
2018-06-01T12:06:37.165Z,44.09
2018-06-01T12:07:37.183Z,44.41
2018-06-01T12:08:37.202Z,43.62
2018-06-01T12:09:37.223Z,44.60
2018-06-01T12:10:37.245Z,44.51
2018-06-01T12:11:37.264Z,43.48
2018-06-01T12:12:37.279Z,43.77
2018-06-01T12:13:37.295Z,46.34
2018-06-01T12:14:37.326Z,50.36
2018-06-01T12:15:37.337Z,49.24
2018-06-01T12:16:37.360Z,45.80
2018-06-01T12:17:37.390Z,48.07
2018-06-01T12:18:37.390Z,49.24
2018-06-01T12:19:37.410Z,48.19
2018-06-01T12:20:37.427Z,46.36
2018-06-01T12:21:37.450Z,45.50
2018-06-01T12:22:37.460Z,44.66
2018-06-01T12:23:37.497Z,43.38
2018-06-01T12:24:37.502Z,42.72
2018-06-01T12:25:37.522Z,41.72
2018-06-01T12:26:37.536Z,42.94
2018-06-01T12:27:37.560Z,43.21
2018-06-01T12:28:37.573Z,42.70
2018-06-01T12:29:37.593Z,43.15
2018-06-01T12:30:37.612Z,45.75
2018-06-01T12:31:37.629Z,45.92
2018-06-01T12:32:37.649Z,47.36
2018-06-01T12:33:37.663Z,47.63
2018-06-01T12:34:37.683Z,47.41
2018-06-01T12:35:37.710Z,45.83
2018-06-01T12:36:37.713Z,47.97
2018-06-01T12:37:37.757Z,51.46
2018-06-01T12:38:37.762Z,50.85
2018-06-01T12:39:37.811Z,51.63
2018-06-01T12:40:37.783Z,50.73
2018-06-01T12:41:37.792Z,50.82
2018-06-01T12:42:37.805Z,50.92
2018-06-01T12:43:37.819Z,50.41
2018-06-01T12:44:37.834Z,49.83
2018-06-01T12:45:37.863Z,50.04
2018-06-01T12:46:37.877Z,49.54
2018-06-01T12:47:37.869Z,52.92
2018-06-01T12:48:37.879Z,50.36
2018-06-01T12:49:37.885Z,52.28
2018-06-01T12:50:37.905Z,55.00
2018-06-01T12:51:37.913Z,54.35
2018-06-01T12:52:37.920Z,56.36
2018-06-01T12:53:37.925Z,54.61
2018-06-01T12:54:37.931Z,54.97
2018-06-01T12:55:37.948Z,55.29
2018-06-01T12:56:37.971Z,57.98
2018-06-01T12:57:37.956Z,56.82
2018-06-01T12:58:37.972Z,55.14
2018-06-01T12:59:37.972Z,56.24
2018-06-01T13:00:37.987Z,54.97
2018-06-01T13:01:37.993Z,56.21
2018-06-01T13:02:38.003Z,54.60
2018-06-01T13:03:38.002Z,56.45
2018-06-01T13:04:38.020Z,56.51
2018-06-01T13:05:38.027Z,59.45
2018-06-01T13:06:38.025Z,59.23
2018-06-01T13:07:38.038Z,58.55
2018-06-01T13:08:38.041Z,60.13
2018-06-01T13:09:38.039Z,58.00
2018-06-01T13:10:38.050Z,58.29
2018-06-01T13:11:38.060Z,55.26
2018-06-01T13:12:38.069Z,58.36
2018-06-01T13:13:38.071Z,59.33
2018-06-01T13:14:38.069Z,58.00
2018-06-01T13:15:38.078Z,58.26
2018-06-01T13:16:38.083Z,55.35
2018-06-01T13:17:38.088Z,57.55
2018-06-01T13:18:38.095Z,58.04
2018-06-01T13:19:38.096Z,56.29
2018-06-01T13:20:38.128Z,58.04
2018-06-01T13:21:38.110Z,60.46
2018-06-01T13:22:38.397Z,59.49
2018-06-01T13:23:38.129Z,60.75
2018-06-01T13:24:38.123Z,60.58
2018-06-01T13:25:38.136Z,61.55
2018-06-01T13:26:38.137Z,59.42
2018-06-01T13:27:38.153Z,56.46
2018-06-01T13:28:38.162Z,57.04
2018-06-01T13:29:38.139Z,56.72
2018-06-01T13:30:38.152Z,58.47
2018-06-01T13:31:38.150Z,59.43
2018-06-01T13:32:38.153Z,60.21
2018-06-01T13:33:38.152Z,60.91
2018-06-01T13:34:38.160Z,61.21
2018-06-01T13:35:38.161Z,62.07
2018-06-01T13:36:38.163Z,62.56
2018-06-01T13:37:38.167Z,61.43
2018-06-01T13:38:38.174Z,62.59